createdAt,value
2024-02-03T00:00:45.842Z,5.34
2024-02-03T00:03:13.003Z,5.36
2024-02-03T00:05:41.574Z,5.32
2024-02-03T00:08:08.698Z,5.39
2024-02-03T00:10:35.766Z,5.36
2024-02-03T00:13:02.698Z,5.41
2024-02-03T00:15:30.217Z,5.45
2024-02-03T00:17:57.546Z,5.46
2024-02-03T00:20:24.599Z,5.45
2024-02-03T00:22:52.934Z,5.34
2024-02-03T00:25:20.733Z,5.28
2024-02-03T00:27:48.937Z,5.15
2024-02-03T00:30:16.227Z,5.17
2024-02-03T00:32:43.390Z,5.17
2024-02-03T00:35:12.418Z,5.18
2024-02-03T00:37:39.459Z,5.19
2024-02-03T00:40:07.443Z,5.19
2024-02-03T00:42:34.474Z,5.20
2024-02-03T00:45:01.479Z,5.16
2024-02-03T00:47:28.586Z,5.11
2024-02-03T00:49:55.818Z,5.02
2024-02-03T00:52:23.210Z,4.88
2024-02-03T00:54:50.275Z,4.88
2024-02-03T00:57:17.258Z,4.85
2024-02-03T00:59:44.300Z,4.94
2024-02-03T01:02:11.272Z,4.95
2024-02-03T01:04:38.352Z,4.98
2024-02-03T01:07:05.355Z,4.98
2024-02-03T01:09:32.494Z,5.01
2024-02-03T01:12:00.128Z,4.97
2024-02-03T01:14:27.193Z,4.94
2024-02-03T01:16:54.209Z,4.91
2024-02-03T01:19:21.991Z,4.81
2024-02-03T01:21:49.094Z,4.79
2024-02-03T01:24:16.132Z,4.74
2024-02-03T01:26:43.125Z,4.74
2024-02-03T01:29:10.132Z,4.71
2024-02-03T01:31:37.743Z,4.70
2024-02-03T01:34:04.920Z,4.62
2024-02-03T01:36:32.551Z,4.57
2024-02-03T01:38:59.649Z,4.51
2024-02-03T01:41:28.417Z,4.51
2024-02-03T01:43:55.493Z,4.46
2024-02-03T01:46:22.953Z,4.36
2024-02-03T01:48:50.256Z,4.34
2024-02-03T01:51:20.155Z,4.28
2024-02-03T01:53:48.563Z,4.27
2024-02-03T01:56:20.195Z,4.29
2024-02-03T01:58:47.671Z,4.27
2024-02-03T02:01:16.555Z,4.31
2024-02-03T02:03:45.535Z,4.25
2024-02-03T02:06:12.838Z,4.28
2024-02-03T02:08:40.561Z,4.25
2024-02-03T02:11:07.720Z,4.23
2024-02-03T02:13:34.987Z,4.24
2024-02-03T02:16:02.434Z,4.23
2024-02-03T02:18:29.755Z,4.24
2024-02-03T02:20:57.162Z,4.23
2024-02-03T02:23:24.185Z,4.21
2024-02-03T02:25:51.234Z,4.18
2024-02-03T02:28:18.265Z,4.16
2024-02-03T02:30:45.412Z,4.10
2024-02-03T02:33:13.489Z,4.14
2024-02-03T02:35:40.643Z,4.14
2024-02-03T02:38:07.691Z,4.23
2024-02-03T02:40:34.882Z,4.28
2024-02-03T02:43:02.622Z,4.34
2024-02-03T02:45:29.628Z,4.37
2024-02-03T02:47:56.700Z,4.34
2024-02-03T02:50:23.870Z,4.32
2024-02-03T02:52:50.857Z,4.31
2024-02-03T02:55:18.096Z,4.27
2024-02-03T02:57:45.349Z,4.25
2024-02-03T03:00:13.193Z,4.31
2024-02-03T03:02:40.213Z,4.25
2024-02-03T03:05:09.432Z,4.23
2024-02-03T03:07:38.072Z,4.18
2024-02-03T03:10:05.318Z,4.15
2024-02-03T03:12:32.413Z,4.07
2024-02-03T03:14:59.409Z,4.05
2024-02-03T03:17:26.466Z,4.03
2024-02-03T03:19:53.565Z,3.89
2024-02-03T03:22:20.675Z,4.01
2024-02-03T03:24:47.704Z,4.03
2024-02-03T03:27:14.943Z,3.99
2024-02-03T03:29:43.342Z,3.96
2024-02-03T03:32:10.934Z,3.99
2024-02-03T03:34:37.945Z,3.90
2024-02-03T03:37:05.170Z,3.79
2024-02-03T03:39:32.083Z,3.78
2024-02-03T03:41:59.174Z,3.87
2024-02-03T03:44:26.210Z,3.77
2024-02-03T03:46:53.227Z,3.85
2024-02-03T03:49:20.251Z,3.88
2024-02-03T03:51:47.507Z,3.95
2024-02-03T03:54:14.542Z,3.90
2024-02-03T03:56:41.799Z,3.89
2024-02-03T03:59:21.478Z,3.85
2024-02-03T04:01:50.154Z,3.90
2024-02-03T04:04:19.004Z,3.91
2024-02-03T04:06:46.674Z,3.85
2024-02-03T04:09:14.972Z,3.80
2024-02-03T04:11:42.030Z,3.80
2024-02-03T04:14:09.495Z,3.72
2024-02-03T04:16:36.686Z,3.66
2024-02-03T04:19:03.959Z,3.66
2024-02-03T04:21:32.634Z,3.64
2024-02-03T04:23:59.682Z,3.62
2024-02-03T04:26:26.680Z,3.65
2024-02-03T04:28:53.521Z,3.67
2024-02-03T04:31:20.747Z,3.63
2024-02-03T04:33:47.776Z,3.57
2024-02-03T04:36:14.904Z,3.53
2024-02-03T04:38:41.980Z,3.49
2024-02-03T04:41:08.958Z,3.47
2024-02-03T04:43:35.908Z,3.39
2024-02-03T04:46:02.863Z,3.27
2024-02-03T04:48:29.955Z,3.26
2024-02-03T04:50:57.102Z,3.23
2024-02-03T04:53:24.043Z,3.20
2024-02-03T04:55:51.044Z,3.18
2024-02-03T04:58:20.190Z,3.12
2024-02-03T05:00:47.641Z,3.10
2024-02-03T05:03:14.615Z,3.05
2024-02-03T05:05:41.827Z,3.03
2024-02-03T05:08:08.871Z,2.97
2024-02-03T05:10:35.839Z,2.95
2024-02-03T05:13:03.073Z,3.04
2024-02-03T05:15:30.214Z,3.02
2024-02-03T05:17:57.235Z,3.02
2024-02-03T05:20:24.195Z,3.05
2024-02-03T05:22:51.233Z,3.10
2024-02-03T05:25:18.528Z,3.15
2024-02-03T05:27:45.502Z,3.33
2024-02-03T05:30:13.929Z,3.40
2024-02-03T05:32:40.906Z,3.43
2024-02-03T05:35:08.693Z,3.46
2024-02-03T05:37:36.218Z,3.43
2024-02-03T05:40:05.075Z,3.36
2024-02-03T05:42:32.189Z,3.26
2024-02-03T05:45:00.216Z,3.05
2024-02-03T05:47:27.557Z,3.01
2024-02-03T05:49:54.893Z,3.21
2024-02-03T05:52:21.842Z,3.28
2024-02-03T05:54:49.618Z,3.27
2024-02-03T05:57:16.657Z,3.31
2024-02-03T05:59:50.926Z,3.27
2024-02-03T06:02:18.844Z,3.25
2024-02-03T06:04:45.898Z,3.34
2024-02-03T06:07:13.373Z,3.23
2024-02-03T06:09:40.503Z,3.29
2024-02-03T06:12:07.802Z,3.42
2024-02-03T06:14:35.692Z,3.36
2024-02-03T06:17:02.726Z,3.27
2024-02-03T06:19:29.739Z,3.11
2024-02-03T06:21:56.862Z,3.22
2024-02-03T06:24:23.978Z,3.40
2024-02-03T06:26:54.478Z,3.53
2024-02-03T06:29:21.422Z,3.70
2024-02-03T06:31:48.416Z,3.82
2024-02-03T06:34:15.458Z,3.85
2024-02-03T06:36:42.610Z,3.81
2024-02-03T06:39:09.950Z,3.79
2024-02-03T06:41:37.041Z,3.82
2024-02-03T06:44:04.123Z,3.76
2024-02-03T06:46:31.081Z,3.69
2024-02-03T06:48:58.141Z,4.03
2024-02-03T06:51:25.250Z,4.30
2024-02-03T06:53:52.213Z,4.42
2024-02-03T06:56:19.163Z,4.60
2024-02-03T06:58:47.585Z,4.68
2024-02-03T07:01:15.387Z,4.64
2024-02-03T07:03:42.653Z,4.66
2024-02-03T07:06:09.856Z,4.74
2024-02-03T07:08:37.026Z,4.88
2024-02-03T07:11:04.271Z,5.00
2024-02-03T07:13:32.910Z,5.23
2024-02-03T07:16:00.101Z,5.39
2024-02-03T07:18:27.382Z,5.71
2024-02-03T07:20:54.402Z,5.90
2024-02-03T07:23:21.317Z,5.96
2024-02-03T07:25:48.492Z,5.99
2024-02-03T07:28:15.474Z,6.04
2024-02-03T07:30:42.546Z,6.11
2024-02-03T07:33:11.598Z,6.18
2024-02-03T07:35:38.712Z,6.28
2024-02-03T07:38:07.909Z,6.45
2024-02-03T07:40:34.864Z,6.55
2024-02-03T07:43:01.870Z,6.63
2024-02-03T07:45:28.899Z,6.65
2024-02-03T07:47:56.068Z,6.75
2024-02-03T07:50:23.996Z,6.88
2024-02-03T07:52:51.323Z,6.88
2024-02-03T07:55:18.614Z,7.02
2024-02-03T07:57:48.800Z,7.14
2024-02-03T08:00:18.442Z,7.13
2024-02-03T08:02:45.381Z,7.26
2024-02-03T08:05:12.524Z,7.43
2024-02-03T08:07:39.764Z,7.44
2024-02-03T08:10:07.473Z,7.50
2024-02-03T08:12:34.731Z,7.55
2024-02-03T08:15:01.793Z,7.75
2024-02-03T08:17:28.737Z,7.89
2024-02-03T08:19:55.833Z,8.03
2024-02-03T08:22:23.126Z,8.35
2024-02-03T08:24:51.031Z,8.64
2024-02-03T08:27:18.097Z,8.88
2024-02-03T08:29:45.129Z,8.99
2024-02-03T08:32:12.047Z,9.19
2024-02-03T08:34:39.210Z,9.41
2024-02-03T08:37:06.326Z,9.51
2024-02-03T08:42:03.423Z,9.89
2024-02-03T08:44:30.369Z,9.92
2024-02-03T08:46:57.475Z,10.03
2024-02-03T08:49:24.514Z,10.00
2024-02-03T08:51:51.621Z,10.22
2024-02-03T08:54:18.610Z,10.37
2024-02-03T08:56:45.657Z,10.86
2024-02-03T08:59:13.227Z,11.14
2024-02-03T09:01:40.248Z,11.19
2024-02-03T09:04:09.273Z,11.06
2024-02-03T09:06:36.576Z,11.08
2024-02-03T09:09:06.580Z,11.07
2024-02-03T09:11:33.806Z,10.99
2024-02-03T09:14:03.127Z,10.96
2024-02-03T09:16:30.329Z,10.63
2024-02-03T09:18:57.458Z,10.39
2024-02-03T09:21:24.902Z,10.58
2024-02-03T09:23:51.893Z,10.80
2024-02-03T09:26:18.955Z,10.91
2024-02-03T09:28:45.941Z,10.98
2024-02-03T09:31:20.144Z,11.06
2024-02-03T09:33:48.046Z,11.20
2024-02-03T09:36:17.880Z,11.37
2024-02-03T09:38:45.033Z,11.47
2024-02-03T09:41:12.265Z,11.67
2024-02-03T09:43:39.442Z,11.93
2024-02-03T09:46:07.011Z,11.88
2024-02-03T09:48:34.254Z,11.73
2024-02-03T09:51:02.392Z,11.70
2024-02-03T09:53:30.610Z,11.92
2024-02-03T09:56:00.395Z,11.88
2024-02-03T09:58:27.432Z,11.58
2024-02-03T10:00:54.665Z,11.22
2024-02-03T10:03:22.357Z,11.19
2024-02-03T10:06:03.255Z,11.18
2024-02-03T10:08:31.417Z,11.21
2024-02-03T10:10:58.614Z,11.02
2024-02-03T10:13:25.812Z,11.20
2024-02-03T10:16:04.299Z,11.11
2024-02-03T10:18:36.325Z,11.14
2024-02-03T10:21:04.520Z,11.35
2024-02-03T10:23:31.765Z,11.52
2024-02-03T10:26:00.232Z,11.59
2024-02-03T10:28:27.964Z,11.60
2024-02-03T10:31:01.968Z,11.57
2024-02-03T10:33:29.515Z,11.64
2024-02-03T10:35:57.349Z,11.59
2024-02-03T10:38:24.345Z,11.74
2024-02-03T10:40:52.932Z,11.80
2024-02-03T10:43:22.254Z,11.96
2024-02-03T10:45:55.068Z,11.97
2024-02-03T10:48:27.441Z,12.01
2024-02-03T10:50:59.303Z,12.06
2024-02-03T10:53:49.323Z,12.19
2024-02-03T10:56:17.130Z,12.42
2024-02-03T10:58:44.273Z,12.43
2024-02-03T11:01:19.325Z,12.34
2024-02-03T11:03:50.591Z,12.43
2024-02-03T11:06:31.889Z,12.48
2024-02-03T11:09:20.983Z,12.53
2024-02-03T11:11:49.931Z,12.54
2024-02-03T11:14:32.499Z,12.13
2024-02-03T11:17:03.537Z,12.26
2024-02-03T11:19:33.517Z,12.40
2024-02-03T11:22:02.421Z,12.54
2024-02-03T11:24:30.808Z,12.54
2024-02-03T11:27:08.739Z,12.59
2024-02-03T11:29:37.513Z,12.65
2024-02-03T11:32:06.668Z,12.83
2024-02-03T11:34:35.928Z,12.90
2024-02-03T11:37:04.088Z,13.00
2024-02-03T11:39:36.221Z,13.04
2024-02-03T11:42:04.526Z,13.02
2024-02-03T11:44:50.520Z,12.91
2024-02-03T11:47:21.083Z,12.86
2024-02-03T11:49:48.538Z,12.94
2024-02-03T11:52:19.048Z,13.00
2024-02-03T11:54:46.991Z,12.87
2024-02-03T11:57:16.311Z,12.79
2024-02-03T11:59:43.819Z,12.84
2024-02-03T12:02:12.706Z,12.93
2024-02-03T12:04:39.882Z,12.96
2024-02-03T12:07:07.234Z,12.94
2024-02-03T12:09:34.971Z,12.94
2024-02-03T12:12:01.951Z,12.82
2024-02-03T12:14:30.877Z,12.75
2024-02-03T12:16:59.067Z,12.79
2024-02-03T12:19:27.928Z,12.71
2024-02-03T12:21:56.699Z,12.66
2024-02-03T12:24:23.925Z,12.63
2024-02-03T12:26:51.094Z,12.63
2024-02-03T12:29:18.645Z,12.64
2024-02-03T12:31:45.579Z,12.64
2024-02-03T12:34:12.892Z,12.68
2024-02-03T12:36:40.107Z,12.79
2024-02-03T12:39:07.334Z,12.81
2024-02-03T12:41:34.507Z,12.79
2024-02-03T12:44:01.658Z,12.84
2024-02-03T12:46:28.859Z,12.80
2024-02-03T12:48:56.361Z,12.82
2024-02-03T12:51:23.706Z,12.82
2024-02-03T12:53:51.717Z,12.85
2024-02-03T12:56:19.570Z,12.88
2024-02-03T12:58:48.607Z,12.92
2024-02-03T13:01:15.645Z,12.91
2024-02-03T13:03:42.755Z,12.81
2024-02-03T13:06:10.409Z,12.73
2024-02-03T13:08:37.437Z,12.67
2024-02-03T13:11:06.038Z,12.63
2024-02-03T13:13:32.971Z,12.75
2024-02-03T13:16:00.028Z,12.83
2024-02-03T13:18:27.370Z,12.77
2024-02-03T13:20:54.432Z,12.76
2024-02-03T13:23:21.368Z,12.63
2024-02-03T13:25:49.095Z,12.58
2024-02-03T13:28:16.129Z,12.54
2024-02-03T13:30:43.079Z,12.50
2024-02-03T13:33:11.639Z,12.39
2024-02-03T13:35:38.962Z,12.33
2024-02-03T13:38:06.081Z,12.43
2024-02-03T13:40:33.877Z,12.51
2024-02-03T13:43:02.449Z,12.53
2024-02-03T13:45:32.536Z,12.45
2024-02-03T13:47:59.890Z,12.40
2024-02-03T13:50:26.933Z,12.40
2024-02-03T13:52:57.196Z,12.42
2024-02-03T13:55:24.982Z,12.38
2024-02-03T13:57:52.260Z,12.41
2024-02-03T14:00:19.522Z,12.37
2024-02-03T14:02:46.593Z,12.33
2024-02-03T14:05:14.140Z,12.33
2024-02-03T14:07:41.158Z,12.28
2024-02-03T14:10:08.522Z,12.28
2024-02-03T14:12:35.535Z,12.25
2024-02-03T14:15:03.013Z,12.21
2024-02-03T14:17:30.751Z,12.26
2024-02-03T14:19:57.934Z,12.22
2024-02-03T14:22:25.009Z,12.14
2024-02-03T14:24:52.039Z,12.09
2024-02-03T14:27:19.092Z,12.12
2024-02-03T14:29:46.147Z,12.17
2024-02-03T14:32:15.969Z,12.12
2024-02-03T14:34:46.476Z,12.03
2024-02-03T14:37:13.699Z,11.93
2024-02-03T14:39:40.619Z,11.89
2024-02-03T14:42:10.865Z,11.79
2024-02-03T14:44:38.861Z,11.74
2024-02-03T14:47:06.314Z,11.64
2024-02-03T14:49:33.432Z,11.68
2024-02-03T14:52:00.590Z,11.71
2024-02-03T14:54:27.823Z,11.57
2024-02-03T14:56:56.795Z,11.64
2024-02-03T14:59:25.175Z,11.49
2024-02-03T15:01:52.167Z,11.35
2024-02-03T15:04:19.442Z,11.37
2024-02-03T15:06:46.970Z,11.40
2024-02-03T15:09:14.084Z,11.31
2024-02-03T15:11:41.262Z,11.25
2024-02-03T15:14:08.659Z,11.22
2024-02-03T15:16:35.531Z,11.12
2024-02-03T15:19:02.738Z,11.03
2024-02-03T15:21:33.324Z,10.96
2024-02-03T15:24:00.514Z,10.96
2024-02-03T15:26:27.484Z,10.90
2024-02-03T15:28:54.837Z,10.91
2024-02-03T15:31:22.077Z,10.91
2024-02-03T15:33:49.455Z,10.87
2024-02-03T15:36:17.475Z,10.79
2024-02-03T15:38:44.674Z,10.70
2024-02-03T15:41:11.840Z,10.53
2024-02-03T15:43:40.721Z,10.47
2024-02-03T15:46:08.375Z,10.48
2024-02-03T15:48:35.662Z,10.59
2024-02-03T15:51:02.693Z,10.64
2024-02-03T15:53:29.698Z,10.54
2024-02-03T15:55:57.064Z,10.53
2024-02-03T15:58:26.294Z,10.41
2024-02-03T16:01:00.091Z,10.38
2024-02-03T16:03:27.447Z,10.35
2024-02-03T16:05:54.672Z,10.38
2024-02-03T16:08:23.115Z,10.35
2024-02-03T16:10:50.571Z,10.32
2024-02-03T16:13:17.882Z,10.29
2024-02-03T16:15:47.371Z,10.14
2024-02-03T16:18:16.065Z,10.07
2024-02-03T16:20:43.591Z,9.92
2024-02-03T16:23:13.724Z,9.83
2024-02-03T16:25:40.913Z,9.77
2024-02-03T16:28:08.679Z,9.74
2024-02-03T16:30:36.225Z,9.64
2024-02-03T16:33:03.548Z,9.60
2024-02-03T16:35:30.826Z,9.52
2024-02-03T16:37:58.829Z,9.52
2024-02-03T16:40:25.886Z,9.56
2024-02-03T16:42:52.825Z,9.64
2024-02-03T16:45:19.894Z,9.54
2024-02-03T16:47:47.197Z,9.62
2024-02-03T16:50:14.268Z,9.66
2024-02-03T16:52:41.228Z,9.67
2024-02-03T16:55:08.738Z,9.61
2024-02-03T16:57:37.618Z,9.63
2024-02-03T17:00:07.796Z,9.62
2024-02-03T17:02:35.082Z,9.58
2024-02-03T17:05:02.254Z,9.49
2024-02-03T17:07:30.046Z,9.57
2024-02-03T17:09:57.392Z,9.56
2024-02-03T17:12:24.910Z,9.40
2024-02-03T17:14:52.015Z,9.29
2024-02-03T17:17:19.101Z,9.20
2024-02-03T17:19:48.953Z,9.35
2024-02-03T17:22:16.128Z,9.38
2024-02-03T17:25:03.489Z,9.27
2024-02-03T17:27:31.096Z,9.10
2024-02-03T17:29:58.084Z,9.04
2024-02-03T17:32:26.524Z,9.21
2024-02-03T17:34:53.935Z,9.21
2024-02-03T17:37:21.161Z,9.11
2024-02-03T17:39:48.388Z,9.01
2024-02-03T17:42:15.466Z,8.93
2024-02-03T17:44:45.646Z,8.91
2024-02-03T17:47:13.540Z,8.90
2024-02-03T17:49:40.782Z,8.75
2024-02-03T17:52:14.945Z,8.69
2024-02-03T17:54:42.432Z,8.74
2024-02-03T17:57:10.025Z,8.72
2024-02-03T17:59:38.966Z,8.72
2024-02-03T18:02:12.525Z,8.84
2024-02-03T18:04:39.717Z,8.86
2024-02-03T18:07:07.058Z,8.69
2024-02-03T18:09:34.174Z,8.68
2024-02-03T18:12:01.369Z,8.70
2024-02-03T18:14:28.386Z,8.77
2024-02-03T18:16:55.367Z,8.76
2024-02-03T18:19:22.465Z,8.76
2024-02-03T18:21:52.182Z,8.63
2024-02-03T18:24:19.589Z,8.49
2024-02-03T18:26:46.509Z,8.54
2024-02-03T18:29:13.845Z,8.61
2024-02-03T18:31:40.966Z,8.65
2024-02-03T18:34:08.474Z,8.68
2024-02-03T18:36:35.892Z,8.60
2024-02-03T18:39:03.165Z,8.46
2024-02-03T18:41:30.935Z,8.43
2024-02-03T18:43:58.683Z,8.49
2024-02-03T18:46:28.349Z,8.36
2024-02-03T18:48:58.195Z,8.23
2024-02-03T18:51:25.855Z,8.27
2024-02-03T18:53:52.946Z,8.35
2024-02-03T18:56:24.209Z,8.33
2024-02-03T18:58:51.959Z,8.36
2024-02-03T19:01:19.654Z,8.41
2024-02-03T19:03:49.413Z,8.42
2024-02-03T19:06:17.093Z,8.29
2024-02-03T19:08:44.117Z,8.12
2024-02-03T19:11:11.173Z,8.01
2024-02-03T19:13:38.303Z,7.93
2024-02-03T19:16:06.200Z,7.90
2024-02-03T19:18:33.287Z,7.85
2024-02-03T19:21:00.509Z,7.83
2024-02-03T19:23:28.255Z,7.74
2024-02-03T19:25:56.655Z,7.72
2024-02-03T19:28:23.589Z,7.70
2024-02-03T19:30:50.750Z,7.68
2024-02-03T19:33:22.240Z,7.68
2024-02-03T19:35:51.412Z,7.66
2024-02-03T19:38:19.587Z,7.71
2024-02-03T19:40:50.272Z,7.66
2024-02-03T19:43:18.693Z,7.65
2024-02-03T19:45:45.812Z,7.60
2024-02-03T19:48:13.129Z,7.61
2024-02-03T19:50:40.410Z,7.79
2024-02-03T19:53:07.953Z,7.79
2024-02-03T19:55:35.176Z,7.72
2024-02-03T19:58:02.365Z,7.58
2024-02-03T20:00:29.615Z,7.70
2024-02-03T20:02:56.678Z,7.71
2024-02-03T20:05:23.726Z,7.62
2024-02-03T20:07:50.921Z,7.67
2024-02-03T20:10:19.402Z,7.78
2024-02-03T20:12:46.655Z,7.73
2024-02-03T20:15:13.869Z,7.68
2024-02-03T20:17:42.051Z,7.78
2024-02-03T20:20:09.546Z,7.83
2024-02-03T20:22:37.280Z,7.78
2024-02-03T20:25:04.784Z,7.72
2024-02-03T20:27:31.974Z,7.67
2024-02-03T20:29:58.950Z,7.80
2024-02-03T20:32:26.129Z,7.91
2024-02-03T20:34:53.202Z,7.79
2024-02-03T20:37:20.317Z,7.66
2024-02-03T20:39:47.260Z,7.63
2024-02-03T20:42:16.751Z,7.56
2024-02-03T20:44:46.687Z,7.41
2024-02-03T20:47:13.945Z,7.25
2024-02-03T20:49:41.141Z,7.29
2024-02-03T20:52:08.461Z,7.20
2024-02-03T20:54:38.800Z,7.16
2024-02-03T20:57:06.043Z,7.18
2024-02-03T20:59:33.184Z,7.15
2024-02-03T21:02:01.788Z,7.05
2024-02-03T21:04:29.099Z,7.08
2024-02-03T21:06:56.498Z,7.08
2024-02-03T21:09:23.950Z,7.00
2024-02-03T21:11:51.090Z,6.89
2024-02-03T21:14:18.330Z,6.79
2024-02-03T21:16:45.340Z,6.78
2024-02-03T21:19:12.566Z,6.75
2024-02-03T21:21:42.970Z,6.71
2024-02-03T21:24:10.139Z,6.70
2024-02-03T21:26:37.160Z,6.69
2024-02-03T21:29:04.786Z,6.66
2024-02-03T21:31:31.812Z,6.77
2024-02-03T21:33:59.663Z,6.84
2024-02-03T21:36:26.846Z,6.81
2024-02-03T21:38:53.872Z,6.89
2024-02-03T21:41:20.869Z,6.88
2024-02-03T21:43:53.353Z,6.93
2024-02-03T21:46:20.851Z,7.14
2024-02-03T21:48:49.919Z,7.00
2024-02-03T21:51:18.052Z,6.95
2024-02-03T21:53:45.405Z,6.85
2024-02-03T21:56:16.695Z,6.70
2024-02-03T21:58:44.481Z,6.72
2024-02-03T22:01:12.280Z,6.71
2024-02-03T22:03:40.928Z,6.74
2024-02-03T22:06:08.529Z,6.86
2024-02-03T22:08:36.064Z,6.81
2024-02-03T22:11:03.076Z,6.76
2024-02-03T22:13:30.229Z,6.76
2024-02-03T22:15:57.211Z,6.77
2024-02-03T22:18:24.414Z,6.73
2024-02-03T22:20:51.612Z,6.88
2024-02-03T22:23:18.688Z,7.10
2024-02-03T22:25:45.676Z,7.00
2024-02-03T22:28:12.874Z,6.85
2024-02-03T22:30:39.862Z,6.99
2024-02-03T22:33:07.134Z,7.01
2024-02-03T22:35:34.215Z,6.91
2024-02-03T22:38:01.318Z,6.78
2024-02-03T22:40:28.339Z,6.86
2024-02-03T22:42:55.433Z,7.01
2024-02-03T22:45:22.463Z,6.95
2024-02-03T22:47:49.652Z,6.91
2024-02-03T22:50:16.960Z,6.80
2024-02-03T22:52:44.368Z,7.03
2024-02-03T22:55:11.631Z,7.10
2024-02-03T22:57:39.315Z,7.03
2024-02-03T23:00:28.971Z,6.96
2024-02-03T23:02:57.824Z,6.94
2024-02-03T23:05:28.123Z,6.79
2024-02-03T23:07:58.107Z,6.70
2024-02-03T23:10:39.364Z,6.79
2024-02-03T23:13:24.130Z,6.74
2024-02-03T23:15:52.854Z,6.85
2024-02-03T23:18:20.042Z,6.96
2024-02-03T23:21:12.784Z,7.02
2024-02-03T23:23:40.084Z,7.09
2024-02-03T23:26:07.232Z,7.09
2024-02-03T23:28:35.264Z,7.02
2024-02-03T23:31:03.543Z,7.03
2024-02-03T23:33:31.242Z,6.89
2024-02-03T23:35:58.382Z,6.80
2024-02-03T23:38:25.887Z,6.81
2024-02-03T23:40:52.879Z,6.99
2024-02-03T23:43:20.684Z,6.90
2024-02-03T23:45:48.222Z,6.69
2024-02-03T23:48:15.445Z,6.85
2024-02-03T23:50:42.443Z,6.79
2024-02-03T23:53:09.466Z,6.87
2024-02-03T23:55:36.707Z,6.87
2024-02-03T23:58:03.973Z,6.77
